Time;durP1;ratioP1;P1;durP2;ratioP2;P2;SDS_P1;SDS_P2;PMS_P1;PMS_P2;Temp;Humidity;BMP_temperature;BMP_pressure;BME280_temperature;BME280_humidity;BME280_pressure;Samples;Min_cycle;Max_cycle;Signal;HPM_P1;HPM_P2
2022/02/10 00:13:08;;;;;;;6.60;5.18;;;19.80;99.90;;;;;;4207224;28;20272;-72
2022/02/10 00:17:45;;;;;;;6.57;5.05;;;19.80;99.90;;;;;;4207998;28;20198;-72
2022/02/10 00:20:05;;;;;;;7.25;4.97;;;19.80;99.90;;;;;;4209902;28;20214;-72
2022/02/10 00:22:14;;;;;;;8.80;4.30;;;19.80;99.90;;;;;;4208355;28;20233;-72
2022/02/10 00:36:08;;;;;;;8.05;4.80;;;19.80;99.90;;;;;;4207662;28;20194;-72
2022/02/10 00:38:11;;;;;;;7.20;4.70;;;19.80;99.90;;;;;;4208921;28;20213;-72
2022/02/10 00:40:13;;;;;;;5.97;4.80;;;19.70;99.90;;;;;;4208841;28;20210;-72
2022/02/10 00:42:16;;;;;;;5.82;4.78;;;19.70;99.90;;;;;;4207395;28;20214;-72
2022/02/10 00:44:20;;;;;;;7.65;4.70;;;19.70;99.90;;;;;;4207772;28;20222;-72
2022/02/10 00:46:22;;;;;;;9.07;5.00;;;19.70;99.90;;;;;;4208374;28;20226;-72
2022/02/10 00:48:25;;;;;;;7.68;4.75;;;19.60;99.90;;;;;;4208005;28;20276;-72
2022/02/10 00:50:29;;;;;;;8.40;4.80;;;19.70;99.90;;;;;;4208832;28;20238;-72
2022/02/10 00:52:31;;;;;;;6.95;4.68;;;19.70;99.90;;;;;;4209561;28;20720;-72
2022/02/10 00:54:36;;;;;;;7.70;5.00;;;19.70;99.90;;;;;;4207750;28;20258;-72
2022/02/10 00:56:39;;;;;;;6.45;4.60;;;19.70;99.90;;;;;;4207760;28;20615;-72
2022/02/10 00:58:44;;;;;;;9.63;4.93;;;19.70;99.90;;;;;;4206968;28;20214;-72
2022/02/10 01:12:31;;;;;;;6.60;5.10;;;19.70;99.90;;;;;;4209203;28;20198;-72
2022/02/10 01:30:58;;;;;;;7.53;4.60;;;19.60;99.90;;;;;;4209358;28;20872;-72
2022/02/10 01:33:05;;;;;;;7.95;4.95;;;19.60;99.90;;;;;;4206553;28;20273;-72
2022/02/10 01:35:12;;;;;;;6.68;4.90;;;19.60;99.90;;;;;;4207897;28;20218;-72
2022/02/10 01:37:15;;;;;;;6.78;4.72;;;19.60;99.90;;;;;;4207948;28;20206;-72
2022/02/10 01:39:23;;;;;;;7.28;4.75;;;19.50;99.90;;;;;;4207672;28;20241;-72
2022/02/10 01:58:10;;;;;;;7.88;4.93;;;19.40;99.90;;;;;;4208107;28;20194;-72
2022/02/10 02:04:54;;;;;;;7.55;4.95;;;19.40;99.90;;;;;;4208601;28;20206;-72
2022/02/10 02:06:57;;;;;;;8.13;4.80;;;19.40;99.90;;;;;;4204726;28;20597;-72
2022/02/10 02:09:02;;;;;;;6.35;4.68;;;19.40;99.90;;;;;;4208220;28;20218;-72
2022/02/10 02:11:05;;;;;;;9.80;5.53;;;19.40;99.90;;;;;;4207023;28;20275;-72
2022/02/10 02:13:07;;;;;;;7.38;5.00;;;19.40;99.90;;;;;;4207188;28;20214;-72
2022/02/10 02:15:10;;;;;;;7.25;5.07;;;19.40;99.90;;;;;;4207768;28;20218;-72
2022/02/10 02:17:12;;;;;;;5.85;4.70;;;19.40;99.90;;;;;;4206269;28;20210;-72
2022/02/10 02:19:15;;;;;;;8.82;5.07;;;19.30;99.90;;;;;;4206730;28;20311;-72
2022/02/10 02:21:19;;;;;;;7.80;4.88;;;19.30;99.90;;;;;;4207726;28;20276;-72
2022/02/10 02:23:25;;;;;;;8.25;5.43;;;19.40;99.90;;;;;;4205747;28;20226;-72
2022/02/10 02:25:27;;;;;;;8.05;4.72;;;19.40;99.90;;;;;;4203308;28;20248;-72
2022/02/10 02:27:43;;;;;;;9.73;5.13;;;19.40;99.90;;;;;;4208158;28;20712;-72
2022/02/10 02:29:55;;;;;;;7.75;4.35;;;19.40;99.90;;;;;;4206280;28;20282;-72
2022/02/10 02:32:01;;;;;;;6.80;4.43;;;19.40;99.90;;;;;;4205763;28;20237;-72
2022/02/10 02:34:38;;;;;;;6.85;5.18;;;19.40;99.90;;;;;;4208902;28;20268;-72
2022/02/10 02:37:16;;;;;;;5.90;4.65;;;19.30;99.90;;;;;;4207461;28;20775;-72
2022/02/10 03:05:07;;;;;;;6.65;4.57;;;19.10;99.90;;;;;;4212485;28;20198;-74
2022/02/10 03:07:14;;;;;;;7.20;4.85;;;19.10;99.90;;;;;;4209987;28;20268;-74
2022/02/10 03:09:23;;;;;;;7.60;4.97;;;19.10;99.90;;;;;;4210900;28;20632;-74
2022/02/10 03:11:26;;;;;;;9.88;5.47;;;19.10;99.90;;;;;;4210458;28;20655;-74
2022/02/10 03:13:33;;;;;;;7.43;4.88;;;19.10;99.90;;;;;;4210751;28;20576;-74
2022/02/10 03:15:43;;;;;;;8.27;5.45;;;19.20;99.90;;;;;;4208511;28;20222;-74
2022/02/10 03:17:55;;;;;;;6.75;4.75;;;19.10;99.90;;;;;;4210687;28;20214;-74
2022/02/10 03:20:06;;;;;;;8.73;5.30;;;19.10;99.90;;;;;;4211979;28;20206;-74
2022/02/10 03:22:34;;;;;;;6.80;4.90;;;19.10;99.90;;;;;;4211552;28;20248;-74
2022/02/10 04:02:25;;;;;;;7.40;5.63;;;18.90;99.90;;;;;;4156275;28;20216;-73
2022/02/10 04:04:49;;;;;;;6.50;4.97;;;18.90;99.90;;;;;;4181959;28;20218;-73
2022/02/10 04:11:56;;;;;;;8.45;5.30;;;18.90;99.90;;;;;;4203762;28;20272;-73
2022/02/10 04:14:04;;;;;;;7.40;5.13;;;18.90;99.90;;;;;;4208729;28;20296;-73
2022/02/10 04:16:14;;;;;;;9.98;5.43;;;18.80;99.90;;;;;;4209140;28;20450;-73
2022/02/10 04:20:50;;;;;;;8.90;5.05;;;18.90;99.90;;;;;;4209027;28;20194;-73
2022/02/10 04:23:04;;;;;;;6.63;5.30;;;18.80;99.90;;;;;;4206454;28;20217;-74
2022/02/10 04:25:29;;;;;;;8.27;5.32;;;18.80;99.90;;;;;;4206621;28;20214;-73
2022/02/10 04:27:55;;;;;;;10.13;5.70;;;18.90;99.90;;;;;;4208286;28;20222;-73
2022/02/10 04:30:18;;;;;;;5.82;5.22;;;18.80;99.90;;;;;;4177275;28;20289;-73
2022/02/10 04:56:13;;;;;;;9.57;6.20;;;18.70;99.70;;;;;;4175403;28;20207;-73
2022/02/10 04:58:34;;;;;;;8.35;5.70;;;18.80;99.80;;;;;;4175704;28;20632;-73
2022/02/10 05:00:54;;;;;;;8.35;5.95;;;18.80;99.80;;;;;;4176362;28;20271;-73
2022/02/10 05:05:56;;;;;;;9.05;5.78;;;18.70;99.70;;;;;;4172926;28;20278;-73
2022/02/10 05:22:33;;;;;;;10.55;6.80;;;18.60;99.60;;;;;;4164387;28;20203;-73
2022/02/10 05:34:06;;;;;;;10.80;6.80;;;18.50;99.70;;;;;;4206141;28;21113;-73
2022/02/10 05:36:12;;;;;;;8.15;6.50;;;18.50;99.80;;;;;;4207916;28;20214;-73
2022/02/10 05:38:21;;;;;;;9.85;7.03;;;18.50;99.70;;;;;;4208888;28;20273;-73
2022/02/10 05:41:10;;;;;;;8.18;6.75;;;18.50;99.70;;;;;;4208482;28;20218;-73
2022/02/10 05:43:21;;;;;;;9.07;6.60;;;18.50;99.80;;;;;;4207120;28;20241;-73
2022/02/10 05:45:28;;;;;;;9.23;6.88;;;18.60;99.70;;;;;;4206925;28;20821;-73
2022/02/10 05:55:25;;;;;;;9.60;6.80;;;18.50;99.70;;;;;;4212334;27;21346;-72
2022/02/10 05:57:43;;;;;;;8.93;6.35;;;18.50;99.80;;;;;;4212223;28;20214;-74
2022/02/10 06:00:40;;;;;;;9.18;6.93;;;18.50;99.70;;;;;;4210515;28;20214;-72
2022/02/10 06:02:47;;;;;;;10.27;7.22;;;18.50;99.80;;;;;;4212932;28;20222;-72
2022/02/10 06:52:10;;;;;;;7.78;5.78;;;19.00;99.90;;;;;;4179325;28;21069;-72
2022/02/10 06:54:21;;;;;;;8.95;6.20;;;19.00;99.90;;;;;;4210836;28;20266;-72
2022/02/10 07:10:33;;;;;;;7.97;5.60;;;19.00;99.90;;;;;;4201396;28;20219;-72
2022/02/10 07:42:54;;;;;;;9.32;6.22;;;19.00;99.90;;;;;;4201747;28;20206;-72
2022/02/10 07:51:32;;;;;;;9.52;5.78;;;19.10;99.90;;;;;;4171166;28;21049;-72
2022/02/10 07:53:53;;;;;;;8.43;5.22;;;19.10;99.90;;;;;;4197684;28;20239;-72
2022/02/10 07:56:12;;;;;;;8.02;5.47;;;19.10;99.90;;;;;;4198326;28;20706;-73
2022/02/10 07:58:40;;;;;;;7.82;5.60;;;19.10;99.90;;;;;;4201326;28;20238;-73
2022/02/10 08:50:19;;;;;;;10.63;6.32;;;19.20;99.90;;;;;;4192500;28;20198;-75
2022/02/10 08:57:19;;;;;;;6.25;5.63;;;19.20;99.90;;;;;;4170392;28;20199;-73
2022/02/10 09:02:10;;;;;;;12.43;6.43;;;19.30;99.90;;;;;;4166365;28;20335;-75
2022/02/10 09:06:58;;;;;;;8.80;6.90;;;19.40;99.90;;;;;;4191541;28;20260;-74
2022/02/10 09:16:48;;;;;;;8.18;5.18;;;19.40;99.90;;;;;;4188375;28;20222;-74
2022/02/10 09:19:16;;;;;;;5.20;4.68;;;19.40;99.90;;;;;;4194001;28;20218;-76
2022/02/10 09:22:12;;;;;;;6.35;4.78;;;19.50;99.90;;;;;;4193705;28;20215;-75
2022/02/10 09:59:24;;;;;;;4.53;3.85;;;19.90;99.90;;;;;;4159551;28;20214;-75
2022/02/10 10:01:32;;;;;;;4.72;3.83;;;19.90;99.90;;;;;;4192466;28;20623;-76
2022/02/10 10:03:40;;;;;;;4.30;3.35;;;19.90;99.90;;;;;;4187611;28;20633;-77
2022/02/10 10:05:54;;;;;;;4.65;3.03;;;19.90;99.90;;;;;;4190671;28;20223;-77
2022/02/10 10:08:13;;;;;;;6.25;3.45;;;19.80;99.90;;;;;;4191757;28;20215;-77
2022/02/10 10:13:21;;;;;;;3.65;3.28;;;20.00;99.90;;;;;;4186269;28;20276;-77
2022/02/10 10:15:35;;;;;;;9.48;3.20;;;20.00;99.90;;;;;;4196100;28;20231;-76
2022/02/10 10:17:57;;;;;;;7.00;3.50;;;20.10;99.90;;;;;;4199009;28;20218;-78
2022/02/10 10:20:06;;;;;;;6.22;3.40;;;20.10;99.90;;;;;;4188799;28;20268;-75
2022/02/10 10:22:22;;;;;;;6.63;3.08;;;20.20;99.90;;;;;;4192302;28;20227;-76
2022/02/10 10:24:44;;;;;;;4.63;2.90;;;20.10;99.90;;;;;;4190100;28;20219;-76
2022/02/10 10:27:11;;;;;;;8.23;3.50;;;20.20;99.90;;;;;;4192487;28;20219;-76
2022/02/10 10:53:22;;;;;;;3.65;2.85;;;20.60;99.90;;;;;;4195251;28;20198;-76
2022/02/10 10:55:39;;;;;;;3.53;2.75;;;20.60;99.90;;;;;;4192588;28;20230;-74
2022/02/10 10:57:46;;;;;;;4.35;2.75;;;20.70;99.90;;;;;;4194066;28;20751;-76
2022/02/10 11:22:11;;;;;;;2.88;2.30;;;20.70;99.90;;;;;;4195624;28;20249;-76
2022/02/10 11:36:32;;;;;;;3.15;2.10;;;21.00;99.90;;;;;;4196411;28;20251;-76
2022/02/10 11:38:41;;;;;;;2.35;2.10;;;20.90;99.90;;;;;;4200499;28;20211;-77
2022/02/10 11:41:32;;;;;;;2.80;2.22;;;21.00;99.90;;;;;;4197422;28;20264;-77
2022/02/10 11:43:42;;;;;;;4.72;2.58;;;21.00;99.90;;;;;;4197974;28;20257;-76
2022/02/10 11:46:15;;;;;;;2.28;2.08;;;20.90;99.90;;;;;;4192999;28;20260;-75
2022/02/10 12:42:10;;;;;;;6.63;1.92;;;22.60;99.90;;;;;;4173964;28;20253;-73
2022/02/10 12:43:33;;;;;;;5.50;2.20;;;22.50;99.90;;;;;;4192452;28;20288;-74
2022/02/10 13:24:13;;;;;;;4.40;1.95;;;23.20;99.90;;;;;;4190462;28;20189;-75
2022/02/10 13:36:15;;;;;;;3.28;2.22;;;23.00;99.90;;;;;;4184096;28;20313;-73
2022/02/10 14:13:36;;;;;;;3.13;2.13;;;23.20;99.90;;;;;;4165624;28;20648;-75
2022/02/10 14:18:19;;;;;;;4.88;2.30;;;23.20;99.90;;;;;;4192437;28;20199;-75
2022/02/10 14:20:39;;;;;;;3.13;2.13;;;23.30;99.90;;;;;;4197038;28;20687;-74
2022/02/10 14:22:53;;;;;;;2.70;2.38;;;23.10;99.90;;;;;;4192265;28;20272;-73
2022/02/10 14:27:18;;;;;;;4.57;2.17;;;22.90;99.90;;;;;;4191671;28;20191;-72
2022/02/10 14:29:20;;;;;;;2.88;2.10;;;23.00;99.90;;;;;;4189629;28;20257;-75
2022/02/10 14:31:22;;;;;;;3.20;1.88;;;23.00;99.90;;;;;;4190790;28;20219;-75
2022/02/10 14:33:28;;;;;;;5.30;2.40;;;23.20;99.90;;;;;;4195658;28;20869;-75
2022/02/10 14:35:35;;;;;;;3.55;2.28;;;23.20;99.90;;;;;;4190610;28;20215;-75
2022/02/10 14:37:52;;;;;;;3.78;2.20;;;23.30;99.90;;;;;;4193283;28;20213;-75
2022/02/10 14:40:10;;;;;;;2.38;2.10;;;23.20;99.90;;;;;;4194433;28;20256;-75
2022/02/10 14:42:36;;;;;;;2.80;2.05;;;23.20;99.90;;;;;;4196488;28;20218;-75
2022/02/10 15:11:05;;;;;;;3.53;2.03;;;23.30;99.90;;;;;;4195275;28;20202;-74
2022/02/10 15:46:37;;;;;;;2.90;2.25;;;23.20;99.90;;;;;;4192165;28;20203;-74
2022/02/10 15:49:08;;;;;;;3.28;2.25;;;23.10;99.90;;;;;;4187695;28;20725;-73
2022/02/10 15:51:44;;;;;;;5.05;2.50;;;23.10;99.90;;;;;;4194163;28;20207;-73
2022/02/10 16:17:09;;;;;;;3.67;1.90;;;22.90;99.90;;;;;;4168743;28;20283;-74
2022/02/10 16:19:11;;;;;;;2.40;1.98;;;22.70;99.90;;;;;;4199113;28;20211;-74
2022/02/10 16:21:17;;;;;;;1.98;1.70;;;22.60;99.90;;;;;;4193945;28;20207;-75
2022/02/10 16:23:23;;;;;;;3.70;2.00;;;22.50;99.90;;;;;;4195343;28;20219;-74
2022/02/10 16:25:27;;;;;;;2.78;1.92;;;22.40;99.90;;;;;;4194798;28;20212;-74
2022/02/10 16:27:31;;;;;;;2.35;1.92;;;22.30;99.90;;;;;;4194774;28;20619;-74
2022/02/10 16:29:33;;;;;;;2.13;1.75;;;22.30;99.90;;;;;;4196978;28;20974;-74
2022/02/10 16:31:36;;;;;;;2.97;1.83;;;22.20;99.90;;;;;;4196506;28;20652;-74
2022/02/10 16:33:43;;;;;;;4.07;2.08;;;22.10;99.90;;;;;;4197141;28;20214;-74
2022/02/10 16:35:46;;;;;;;3.38;2.20;;;22.00;99.90;;;;;;4195346;28;20628;-74
2022/02/10 16:37:48;;;;;;;2.03;1.70;;;22.00;99.90;;;;;;4196053;28;20710;-74
2022/02/10 16:39:52;;;;;;;3.58;2.15;;;22.00;99.90;;;;;;4194029;28;20223;-74
2022/02/10 16:41:55;;;;;;;1.80;1.67;;;22.10;99.90;;;;;;4191535;28;20211;-74
2022/02/10 16:43:58;;;;;;;2.40;1.70;;;22.00;99.90;;;;;;4193821;28;20219;-74
2022/02/10 16:46:00;;;;;;;2.50;1.77;;;22.00;99.90;;;;;;4191226;28;20975;-74
2022/02/10 16:48:02;;;;;;;2.15;1.75;;;22.00;99.90;;;;;;4195248;28;20666;-74
2022/02/10 16:50:05;;;;;;;2.38;1.70;;;21.90;99.90;;;;;;4191484;28;20216;-74
2022/02/10 16:52:08;;;;;;;2.33;1.70;;;21.90;99.90;;;;;;4196532;28;20583;-75
2022/02/10 16:54:18;;;;;;;3.22;2.13;;;21.90;99.90;;;;;;4192264;28;20226;-74
2022/02/10 16:56:26;;;;;;;1.92;1.70;;;21.90;99.90;;;;;;4193290;28;20218;-74
2022/02/10 16:58:34;;;;;;;3.53;1.92;;;21.90;99.90;;;;;;4190842;28;20214;-74
2022/02/10 17:03:30;;;;;;;3.78;1.80;;;21.80;99.90;;;;;;4206712;27;20888;-73
2022/02/10 17:05:49;;;;;;;4.07;2.10;;;21.90;99.90;;;;;;4203201;28;20222;-73
2022/02/10 17:17:28;;;;;;;2.30;1.90;;;21.80;99.90;;;;;;4193581;28;20198;-73
2022/02/10 17:19:35;;;;;;;3.00;1.60;;;21.80;99.90;;;;;;4204038;28;20244;-73
2022/02/10 17:26:33;;;;;;;2.42;1.90;;;21.80;99.90;;;;;;4205087;28;20199;-73
2022/02/10 17:28:37;;;;;;;3.97;2.25;;;21.70;99.90;;;;;;4206079;28;20255;-72
2022/02/10 17:33:08;;;;;;;2.70;1.75;;;21.80;99.90;;;;;;4201827;28;20604;-73
2022/02/10 17:35:18;;;;;;;2.83;1.70;;;21.80;99.90;;;;;;4203252;28;20606;-73
2022/02/10 17:41:18;;;;;;;2.80;1.60;;;21.80;99.90;;;;;;4204541;28;20222;-74
2022/02/10 17:42:32;;;;;;;2.40;1.65;;;21.80;99.90;;;;;;4204244;28;20214;-73
2022/02/10 17:44:51;;;;;;;1.98;1.55;;;21.70;99.90;;;;;;4203602;28;20203;-74
2022/02/10 17:47:08;;;;;;;2.25;1.45;;;21.80;99.90;;;;;;4205540;28;20984;-73
2022/02/10 17:51:55;;;;;;;2.90;1.67;;;21.70;99.90;;;;;;4202221;28;20720;-74
2022/02/10 17:53:59;;;;;;;2.85;1.52;;;21.70;99.90;;;;;;4205372;28;20268;-74
2022/02/10 17:56:02;;;;;;;1.95;1.65;;;21.70;99.90;;;;;;4202522;28;20214;-73
2022/02/10 17:58:04;;;;;;;2.90;1.80;;;21.70;99.90;;;;;;4204640;28;20220;-73
2022/02/10 18:00:09;;;;;;;2.33;1.35;;;21.70;99.90;;;;;;4205406;28;20226;-74
2022/02/10 18:02:12;;;;;;;1.70;1.40;;;21.70;99.90;;;;;;4203742;28;20299;-73
2022/02/10 18:04:16;;;;;;;2.58;1.40;;;21.70;99.90;;;;;;4204995;28;20223;-73
2022/02/10 18:06:24;;;;;;;2.72;1.48;;;21.70;99.90;;;;;;4202594;28;20211;-73
2022/02/10 18:08:32;;;;;;;2.15;1.42;;;21.70;99.90;;;;;;4202905;28;20662;-74
2022/02/10 18:11:13;;;;;;;2.03;1.42;;;21.60;99.90;;;;;;4202236;28;20214;-74
2022/02/10 18:13:23;;;;;;;2.78;1.73;;;21.60;99.90;;;;;;4201983;28;20281;-74
2022/02/10 18:15:33;;;;;;;2.40;1.50;;;21.70;99.90;;;;;;4189336;28;20215;-73
2022/02/10 18:17:37;;;;;;;2.65;1.40;;;21.70;99.90;;;;;;4191960;28;20267;-73
2022/02/10 18:19:44;;;;;;;1.88;1.38;;;21.70;99.90;;;;;;4194582;28;20223;-73
2022/02/10 18:22:21;;;;;;;1.48;1.35;;;21.70;99.90;;;;;;4193031;28;20263;-73
2022/02/10 18:24:45;;;;;;;1.40;1.17;;;21.70;99.90;;;;;;4193353;28;20264;-73
2022/02/10 18:27:02;;;;;;;2.30;1.70;;;21.70;99.90;;;;;;4189742;28;20211;-74
2022/02/10 18:29:16;;;;;;;2.15;1.70;;;21.70;99.90;;;;;;4192470;28;20222;-74
2022/02/10 18:34:23;;;;;;;2.17;1.50;;;21.50;99.90;;;;;;4190880;28;20195;-73
2022/02/10 19:09:26;;;;;;;2.13;1.50;;;21.40;99.90;;;;;;4165676;28;20215;-74
2022/02/10 19:11:28;;;;;;;2.60;1.27;;;21.40;99.90;;;;;;4194298;28;20544;-74
2022/02/10 19:13:32;;;;;;;1.90;1.30;;;21.40;99.90;;;;;;4194757;28;20210;-74
2022/02/10 19:15:34;;;;;;;1.95;1.40;;;21.40;99.90;;;;;;4193536;28;20261;-74
2022/02/10 19:17:37;;;;;;;1.40;1.30;;;21.40;99.90;;;;;;4190608;28;20222;-74
2022/02/10 19:19:40;;;;;;;1.70;1.40;;;21.30;99.90;;;;;;4191737;28;20215;-74
2022/02/10 19:21:43;;;;;;;4.22;2.17;;;21.30;99.90;;;;;;4196430;28;20215;-74
2022/02/10 19:23:45;;;;;;;4.20;2.42;;;21.20;99.40;;;;;;4188486;28;20292;-74
2022/02/10 19:25:47;;;;;;;3.42;2.55;;;21.20;98.50;;;;;;4188942;28;20281;-74
2022/02/10 19:27:50;;;;;;;2.67;1.90;;;21.10;98.90;;;;;;4191879;28;20276;-73
2022/02/10 19:29:57;;;;;;;2.90;2.10;;;21.20;98.90;;;;;;4193949;28;20211;-74
2022/02/10 19:31:59;;;;;;;3.35;2.33;;;21.20;99.20;;;;;;4186883;28;20260;-73
2022/02/10 19:34:02;;;;;;;3.00;1.88;;;21.20;99.50;;;;;;4194341;28;20226;-74
2022/02/10 19:36:05;;;;;;;3.42;1.77;;;21.10;99.70;;;;;;4192943;28;20618;-74
2022/02/10 19:38:08;;;;;;;4.47;1.85;;;21.10;99.80;;;;;;4192414;28;20264;-73
2022/02/10 19:40:12;;;;;;;2.80;1.40;;;21.10;99.90;;;;;;4191396;28;20312;-74
2022/02/10 19:42:14;;;;;;;3.38;1.77;;;21.10;99.90;;;;;;4192585;28;20207;-74
2022/02/10 19:44:17;;;;;;;2.88;1.73;;;21.10;99.90;;;;;;4192326;28;20293;-74
2022/02/10 19:46:23;;;;;;;2.88;1.90;;;21.10;99.90;;;;;;4190705;28;20207;-73
2022/02/10 19:48:26;;;;;;;3.78;1.60;;;21.10;99.90;;;;;;4194373;28;20211;-74
2022/02/10 19:50:30;;;;;;;3.30;1.90;;;21.00;99.90;;;;;;4193589;28;20223;-73
2022/02/10 19:52:36;;;;;;;3.40;2.03;;;21.00;99.90;;;;;;4192813;28;20219;-73
2022/02/10 19:54:45;;;;;;;2.85;1.90;;;21.00;99.90;;;;;;4194076;28;20272;-74
2022/02/10 19:56:48;;;;;;;3.42;2.00;;;21.00;99.90;;;;;;4194234;28;20214;-74
2022/02/10 19:58:50;;;;;;;3.88;2.08;;;21.00;99.90;;;;;;4191880;28;20212;-74
2022/02/10 20:00:57;;;;;;;3.00;2.13;;;21.00;99.90;;;;;;4193108;28;20215;-73
2022/02/10 20:03:06;;;;;;;3.10;1.88;;;21.00;99.90;;;;;;4191350;28;20242;-74
2022/02/10 20:05:09;;;;;;;2.40;1.60;;;20.90;99.90;;;;;;4186196;28;20222;-74
2022/02/10 20:07:12;;;;;;;2.60;1.80;;;20.90;99.90;;;;;;4190667;28;20276;-74
2022/02/10 20:09:16;;;;;;;3.13;1.80;;;20.90;99.90;;;;;;4190312;28;20268;-73
2022/02/10 20:11:18;;;;;;;2.60;1.80;;;20.90;99.90;;;;;;4190776;28;20215;-74
2022/02/10 20:13:21;;;;;;;2.33;1.67;;;20.90;99.90;;;;;;4190179;28;20276;-74
2022/02/10 20:15:24;;;;;;;2.33;1.77;;;20.90;99.90;;;;;;4187870;28;20660;-73
2022/02/10 20:17:26;;;;;;;2.50;1.98;;;20.80;99.90;;;;;;4191314;28;20219;-74
2022/02/10 20:19:30;;;;;;;2.97;1.83;;;20.90;99.90;;;;;;4191841;28;20318;-73
2022/02/10 20:21:32;;;;;;;2.90;2.15;;;20.80;99.90;;;;;;4189726;28;20664;-73
2022/02/10 20:23:35;;;;;;;2.35;1.75;;;20.80;99.90;;;;;;4191274;28;20239;-73
2022/02/10 20:25:38;;;;;;;3.60;1.80;;;20.90;99.90;;;;;;4190018;28;20218;-73
2022/02/10 20:27:40;;;;;;;2.75;2.05;;;20.80;99.90;;;;;;4191180;28;20223;-74
2022/02/10 20:29:43;;;;;;;3.22;2.00;;;20.80;99.90;;;;;;4189484;28;20222;-74
2022/02/10 20:31:45;;;;;;;2.80;2.03;;;20.80;99.90;;;;;;4191927;28;20223;-73
2022/02/10 20:33:47;;;;;;;2.58;1.90;;;20.80;99.90;;;;;;4190416;28;20223;-73
2022/02/10 20:35:55;;;;;;;2.70;1.80;;;20.80;99.90;;;;;;4191148;28;20222;-74
2022/02/10 20:38:00;;;;;;;3.90;2.28;;;20.70;99.80;;;;;;4190165;28;20210;-74
2022/02/10 20:40:04;;;;;;;3.33;1.95;;;20.70;99.90;;;;;;4191092;28;20207;-73
2022/02/10 20:42:13;;;;;;;3.00;1.92;;;20.70;99.90;;;;;;4189965;28;20459;-73
2022/02/10 20:44:15;;;;;;;38.30;4.45;;;20.70;99.90;;;;;;4190473;28;20242;-74
2022/02/10 20:46:19;;;;;;;15.20;2.85;;;20.70;99.90;;;;;;4190642;28;20223;-73
2022/02/10 20:48:22;;;;;;;10.15;2.58;;;20.60;99.90;;;;;;4190073;28;20219;-74
2022/02/10 20:50:25;;;;;;;5.63;2.03;;;20.60;99.90;;;;;;4191134;28;20215;-74
2022/02/10 20:52:29;;;;;;;11.27;2.28;;;20.60;99.90;;;;;;4191102;28;20328;-73
2022/02/10 20:54:31;;;;;;;5.22;2.00;;;20.60;99.90;;;;;;4189305;28;20211;-74
2022/02/10 20:56:33;;;;;;;6.45;2.10;;;20.60;99.90;;;;;;4191356;28;20268;-73
2022/02/10 20:58:38;;;;;;;7.90;2.03;;;20.60;99.80;;;;;;4189122;28;20218;-73
2022/02/10 21:00:40;;;;;;;2.10;1.70;;;20.60;99.90;;;;;;4188545;28;20606;-73
2022/02/10 21:02:45;;;;;;;4.97;2.58;;;20.60;99.90;;;;;;4190526;28;20291;-73
2022/02/10 21:04:53;;;;;;;5.45;2.25;;;20.60;99.80;;;;;;4188819;28;20243;-73
2022/02/10 21:07:01;;;;;;;7.88;1.85;;;20.60;99.80;;;;;;4189808;28;20219;-73
2022/02/10 21:09:10;;;;;;;3.28;2.00;;;20.60;99.70;;;;;;4187674;28;20222;-73
2022/02/10 21:11:14;;;;;;;3.72;2.08;;;20.60;99.70;;;;;;4190596;28;20676;-74
2022/02/10 21:13:17;;;;;;;3.47;1.70;;;20.50;99.50;;;;;;4190808;28;20215;-73
2022/02/10 21:15:26;;;;;;;4.47;2.05;;;20.50;99.50;;;;;;4190547;28;20222;-73
2022/02/10 21:17:29;;;;;;;2.47;1.92;;;20.50;99.50;;;;;;4188606;28;20270;-74
2022/02/10 21:19:32;;;;;;;5.32;2.13;;;20.50;99.50;;;;;;4189449;28;20223;-73
2022/02/10 21:21:35;;;;;;;4.22;1.73;;;20.50;99.50;;;;;;4190934;28;20288;-73
2022/02/10 21:23:44;;;;;;;4.30;2.03;;;20.50;99.50;;;;;;4190127;28;20296;-73
2022/02/10 21:25:49;;;;;;;3.60;1.90;;;20.50;99.50;;;;;;4189891;28;20237;-73
2022/02/10 21:27:53;;;;;;;5.15;2.03;;;20.40;99.40;;;;;;4190795;28;20240;-73
2022/02/10 21:29:59;;;;;;;2.72;1.73;;;20.40;99.40;;;;;;4190245;28;20215;-73
2022/02/10 21:32:02;;;;;;;2.63;1.75;;;20.40;99.30;;;;;;4189892;28;20623;-73
2022/02/10 21:34:11;;;;;;;3.53;2.08;;;20.40;99.30;;;;;;4189348;28;20221;-74
2022/02/10 21:38:50;;;;;;;3.70;1.77;;;20.40;99.40;;;;;;4144979;28;20604;-73
2022/02/10 21:41:29;;;;;;;4.22;2.08;;;20.40;99.30;;;;;;4167037;28;20261;-73
2022/02/10 21:48:23;;;;;;;3.10;1.83;;;20.40;99.40;;;;;;4190917;28;20203;-73
2022/02/10 21:53:19;;;;;;;2.45;2.00;;;20.40;99.40;;;;;;4193421;28;20202;-74
2022/02/10 21:55:33;;;;;;;3.72;1.88;;;20.30;99.20;;;;;;4193291;28;20245;-73
2022/02/10 21:58:16;;;;;;;4.30;1.60;;;20.30;99.20;;;;;;4193680;28;20261;-73
2022/02/10 22:00:41;;;;;;;2.30;1.85;;;20.30;99.10;;;;;;4192977;28;20222;-73
2022/02/10 22:10:00;;;;;;;4.00;1.95;;;20.30;99.20;;;;;;4194092;28;20199;-73
2022/02/10 22:12:15;;;;;;;2.63;1.75;;;20.30;99.20;;;;;;4193407;28;20237;-74
2022/02/10 22:16:59;;;;;;;2.10;1.50;;;20.20;99.00;;;;;;4194114;28;20606;-74
2022/02/10 22:19:06;;;;;;;3.03;1.45;;;20.20;99.00;;;;;;4193371;28;20620;-73
2022/02/10 22:21:10;;;;;;;4.30;1.90;;;20.20;99.00;;;;;;4192633;28;20218;-73
2022/02/10 22:23:20;;;;;;;2.17;1.40;;;20.10;98.90;;;;;;4193566;28;20276;-73
2022/02/10 22:25:24;;;;;;;2.47;1.80;;;20.20;99.00;;;;;;4193265;28;20292;-74
2022/02/10 22:27:29;;;;;;;2.45;1.70;;;20.10;98.90;;;;;;4193886;28;20550;-73
2022/02/10 22:29:37;;;;;;;3.33;1.67;;;20.10;99.00;;;;;;4191371;28;20216;-73
2022/02/10 22:31:50;;;;;;;2.25;1.90;;;20.10;99.00;;;;;;4191327;28;20671;-73
2022/02/10 22:34:05;;;;;;;3.15;1.92;;;20.00;98.90;;;;;;4196227;28;20268;-76
2022/02/10 22:36:10;;;;;;;3.00;1.77;;;20.10;98.90;;;;;;4196732;28;20215;-73
2022/02/10 22:38:13;;;;;;;2.78;1.70;;;20.10;98.90;;;;;;4196213;28;20207;-73
2022/02/10 22:40:38;;;;;;;2.25;1.52;;;20.10;98.90;;;;;;4196422;28;20719;-74
2022/02/10 22:42:41;;;;;;;2.05;1.40;;;20.00;98.90;;;;;;4192957;28;20215;-73
2022/02/10 22:44:44;;;;;;;3.45;2.03;;;20.00;98.80;;;;;;4195954;28;20725;-73
2022/02/10 22:46:47;;;;;;;2.95;1.90;;;20.00;98.80;;;;;;4193587;28;20227;-73
2022/02/10 22:48:51;;;;;;;2.10;1.70;;;20.00;98.80;;;;;;4193779;28;20594;-73
2022/02/10 22:50:53;;;;;;;3.45;1.98;;;19.90;98.80;;;;;;4195625;28;20234;-73
2022/02/10 22:52:55;;;;;;;4.35;1.88;;;20.00;98.90;;;;;;4194933;28;20211;-73
2022/02/10 22:54:58;;;;;;;5.25;2.10;;;19.90;98.80;;;;;;4191401;28;20219;-73
2022/02/10 22:57:00;;;;;;;4.30;2.08;;;19.90;98.80;;;;;;4194881;28;20299;-76
2022/02/10 22:59:05;;;;;;;2.95;1.90;;;19.90;98.90;;;;;;4193766;28;20564;-73
2022/02/10 23:01:10;;;;;;;3.58;2.20;;;19.90;98.90;;;;;;4195722;28;20702;-74
2022/02/10 23:03:12;;;;;;;2.35;1.70;;;19.90;98.90;;;;;;4195670;28;20284;-73
2022/02/10 23:05:14;;;;;;;2.63;1.67;;;19.90;98.90;;;;;;4195943;28;20234;-76
2022/02/10 23:07:17;;;;;;;2.53;2.00;;;19.80;98.90;;;;;;4195773;28;20215;-73
2022/02/10 23:09:30;;;;;;;2.13;1.70;;;19.80;99.20;;;;;;4195612;28;20264;-73
2022/02/10 23:11:32;;;;;;;2.63;1.98;;;19.80;98.80;;;;;;4195910;28;20218;-73
2022/02/10 23:13:35;;;;;;;4.15;1.90;;;19.80;98.80;;;;;;4195623;28;20231;-73
2022/02/10 23:15:40;;;;;;;2.08;1.65;;;19.80;98.90;;;;;;4192575;28;20216;-73
2022/02/10 23:17:44;;;;;;;3.50;1.95;;;19.80;98.90;;;;;;4195916;28;20219;-73
2022/02/10 23:19:46;;;;;;;2.78;1.83;;;19.80;98.80;;;;;;4195719;28;20564;-73
2022/02/10 23:21:51;;;;;;;3.10;1.75;;;19.70;98.80;;;;;;4194349;28;20272;-73
2022/02/10 23:23:53;;;;;;;2.20;1.70;;;19.70;98.80;;;;;;4195978;28;20226;-73
2022/02/10 23:25:58;;;;;;;2.47;1.90;;;19.70;98.80;;;;;;4195494;28;20280;-73
2022/02/10 23:28:01;;;;;;;2.70;2.00;;;19.70;98.80;;;;;;4195535;28;20211;-73
2022/02/10 23:30:04;;;;;;;4.13;2.17;;;19.70;98.80;;;;;;4195226;28;20613;-73
2022/02/10 23:32:07;;;;;;;2.45;1.70;;;19.70;98.80;;;;;;4192884;28;20629;-73
2022/02/10 23:34:11;;;;;;;3.28;1.90;;;19.60;98.80;;;;;;4195506;28;20262;-73
2022/02/10 23:36:39;;;;;;;2.65;1.77;;;19.70;98.90;;;;;;4195703;28;20203;-73
2022/02/10 23:38:47;;;;;;;3.17;1.80;;;19.60;98.70;;;;;;4195318;28;20563;-73
2022/02/10 23:41:16;;;;;;;2.15;1.42;;;19.70;98.70;;;;;;4194984;28;20276;-73
2022/02/10 23:43:17;;;;;;;1.83;1.70;;;19.60;98.70;;;;;;4194430;28;20272;-74
2022/02/10 23:45:24;;;;;;;2.47;1.85;;;19.60;98.70;;;;;;4192447;28;20292;-73
2022/02/10 23:47:32;;;;;;;3.25;1.70;;;19.60;98.70;;;;;;4195205;28;20257;-73
2022/02/10 23:49:37;;;;;;;2.75;1.80;;;19.60;98.60;;;;;;4193590;28;20670;-73
2022/02/10 23:51:46;;;;;;;2.40;1.77;;;19.60;98.60;;;;;;4194930;28;20312;-73
2022/02/10 23:53:49;;;;;;;3.80;1.90;;;19.60;98.60;;;;;;4190657;28;20222;-73
2022/02/10 23:55:51;;;;;;;4.70;1.90;;;19.50;98.50;;;;;;4194017;28;20211;-73
2022/02/10 23:58:01;;;;;;;2.60;1.70;;;19.50;98.50;;;;;;4195247;28;20980;-73
